Time;durP1;ratioP1;P1;durP2;ratioP2;P2;SDS_P1;SDS_P2;PMS_P1;PMS_P2;Temp;Humidity;BMP_temperature;BMP_pressure;BME280_temperature;BME280_humidity;BME280_pressure;Samples;Min_cycle;Max_cycle;Signal;HPM_P1;HPM_P2
2022/09/09 00:03:00;;;;;;;7.72;6.95;;;22.80;99.90;;;;;;6263774;27;88493;-66
2022/09/09 00:06:11;;;;;;;8.85;7.95;;;22.80;99.90;;;;;;6258427;27;87970;-66
2022/09/09 00:09:16;;;;;;;8.60;7.80;;;22.80;99.90;;;;;;6258647;27;89523;-66
2022/09/09 00:12:25;;;;;;;8.60;7.70;;;22.80;99.90;;;;;;6262425;27;90000;-66
2022/09/09 00:15:34;;;;;;;7.70;6.97;;;22.80;99.90;;;;;;6278247;27;88098;-66
2022/09/09 00:18:53;;;;;;;8.07;7.28;;;22.80;99.90;;;;;;6260534;27;89075;-66
2022/09/09 00:22:05;;;;;;;7.60;6.90;;;22.80;99.90;;;;;;6275204;27;89072;-66
2022/09/09 00:25:16;;;;;;;8.32;7.53;;;22.80;99.90;;;;;;6270571;27;87967;-66
2022/09/09 00:28:21;;;;;;;8.50;7.70;;;22.80;99.90;;;;;;6260027;27;89175;-66
2022/09/09 00:31:28;;;;;;;8.05;7.25;;;22.80;99.90;;;;;;6265803;27;89162;-66
2022/09/09 00:34:31;;;;;;;8.10;7.30;;;22.80;99.90;;;;;;6272469;27;88406;-66
2022/09/09 00:37:36;;;;;;;8.18;7.38;;;22.70;99.90;;;;;;6275264;27;89047;-66
2022/09/09 00:40:46;;;;;;;8.15;7.38;;;22.80;99.90;;;;;;6264545;27;89058;-66
2022/09/09 00:43:58;;;;;;;8.30;7.50;;;22.70;99.90;;;;;;6261567;27;90118;-66
2022/09/09 00:47:16;;;;;;;7.78;6.95;;;22.70;99.90;;;;;;6262194;27;89281;-66
2022/09/09 00:50:35;;;;;;;8.13;7.32;;;22.80;99.90;;;;;;6261495;27;90668;-66
2022/09/09 00:53:56;;;;;;;7.70;7.00;;;22.80;99.90;;;;;;6271649;27;89194;-66
2022/09/09 00:57:13;;;;;;;7.60;6.90;;;22.70;99.90;;;;;;6269096;27;88997;-66
2022/09/09 01:00:22;;;;;;;7.93;7.13;;;22.80;99.90;;;;;;6275164;27;89122;-66
2022/09/09 01:03:34;;;;;;;8.02;7.22;;;22.80;99.90;;;;;;6267467;27;88133;-67
2022/09/09 01:06:38;;;;;;;8.23;7.43;;;22.70;99.90;;;;;;6269016;27;87441;-66
2022/09/09 01:09:52;;;;;;;7.78;6.97;;;22.80;99.90;;;;;;6281710;27;89197;-66
2022/09/09 01:12:56;;;;;;;8.23;7.43;;;22.70;99.90;;;;;;6266026;27;87956;-66
2022/09/09 01:16:00;;;;;;;8.30;7.35;;;22.70;99.90;;;;;;6258359;27;90018;-66
2022/09/09 01:19:03;;;;;;;7.57;6.88;;;22.80;99.90;;;;;;6268305;27;89106;-66
2022/09/09 01:22:16;;;;;;;7.75;7.05;;;22.70;99.90;;;;;;6257368;27;89025;-66
2022/09/09 01:25:31;;;;;;;7.90;7.10;;;22.70;99.90;;;;;;6269335;27;89166;-66
2022/09/09 01:28:36;;;;;;;7.50;6.80;;;22.70;99.90;;;;;;6260246;27;89105;-66
2022/09/09 01:31:41;;;;;;;7.25;6.53;;;22.70;99.90;;;;;;6256826;27;89086;-66
2022/09/09 01:34:43;;;;;;;6.57;5.97;;;22.70;99.90;;;;;;6261931;27;89158;-66
2022/09/09 01:37:46;;;;;;;6.63;6.03;;;22.70;99.90;;;;;;6266678;27;88448;-66
2022/09/09 01:40:49;;;;;;;7.57;6.78;;;22.70;99.90;;;;;;6259770;27;89136;-66
2022/09/09 01:43:54;;;;;;;7.55;6.75;;;22.70;99.90;;;;;;6264279;27;89188;-66
2022/09/09 01:46:56;;;;;;;7.38;6.68;;;22.70;99.90;;;;;;6255924;27;90108;-66
2022/09/09 01:49:58;;;;;;;6.60;6.00;;;22.70;99.90;;;;;;6255770;27;88867;-66
2022/09/09 01:53:02;;;;;;;7.13;6.43;;;22.70;99.90;;;;;;6263773;27;88990;-66
2022/09/09 01:56:13;;;;;;;6.50;5.90;;;22.70;99.90;;;;;;6276186;27;89079;-66
2022/09/09 01:59:31;;;;;;;6.72;6.13;;;22.70;99.90;;;;;;6263534;27;89367;-66
2022/09/09 02:02:39;;;;;;;8.80;6.82;;;22.70;99.90;;;;;;6258224;27;89097;-66
2022/09/09 02:05:46;;;;;;;6.70;5.97;;;22.70;99.90;;;;;;6269374;27;89046;-66
2022/09/09 02:08:51;;;;;;;6.85;6.10;;;22.70;99.90;;;;;;6263950;27;88399;-66
2022/09/09 02:12:01;;;;;;;7.15;6.45;;;22.70;99.90;;;;;;6263898;27;89168;-66
2022/09/09 02:15:12;;;;;;;6.65;6.00;;;22.70;99.90;;;;;;6263431;27;89135;-66
2022/09/09 02:18:18;;;;;;;6.82;6.18;;;22.70;99.90;;;;;;6263272;27;90017;-66
2022/09/09 02:21:20;;;;;;;6.50;5.90;;;22.70;99.90;;;;;;6277984;27;89079;-66
2022/09/09 02:24:23;;;;;;;7.10;6.40;;;22.70;99.90;;;;;;6268748;27;87988;-66
2022/09/09 02:27:25;;;;;;;7.32;6.63;;;22.70;99.90;;;;;;6277529;27;89046;-66
2022/09/09 02:30:30;;;;;;;6.45;5.85;;;22.70;99.90;;;;;;6269483;27;89127;-66
2022/09/09 02:33:37;;;;;;;6.57;5.97;;;22.70;99.90;;;;;;6259494;27;89048;-66
2022/09/09 02:36:43;;;;;;;6.60;6.00;;;22.70;99.90;;;;;;6258541;27;89138;-66
2022/09/09 02:39:46;;;;;;;6.45;5.70;;;22.70;99.90;;;;;;6273052;27;88227;-66
2022/09/09 02:42:49;;;;;;;6.45;5.85;;;22.70;99.90;;;;;;6270971;27;89068;-66
2022/09/09 02:46:03;;;;;;;6.28;5.68;;;22.70;99.90;;;;;;6266238;27;89043;-66
2022/09/09 02:49:12;;;;;;;6.38;5.78;;;22.70;99.90;;;;;;6254894;27;90026;-66
2022/09/09 02:52:16;;;;;;;6.05;5.45;;;22.70;99.90;;;;;;6264548;27;88014;-66
2022/09/09 02:55:24;;;;;;;6.40;5.80;;;22.70;99.90;;;;;;6258331;27;89010;-66
2022/09/09 02:58:27;;;;;;;6.80;6.10;;;22.70;99.90;;;;;;6257873;27;89073;-66
2022/09/09 03:01:30;;;;;;;6.22;5.63;;;22.70;99.90;;;;;;6271423;27;89892;-66
2022/09/09 03:04:33;;;;;;;5.93;5.32;;;22.70;99.90;;;;;;6276376;27;89160;-66
2022/09/09 03:07:35;;;;;;;5.70;5.18;;;22.70;99.90;;;;;;6266524;27;88987;-66
2022/09/09 03:10:37;;;;;;;6.55;5.90;;;22.70;99.90;;;;;;6260112;27;88405;-66
2022/09/09 03:13:39;;;;;;;6.75;6.05;;;22.70;99.90;;;;;;6268506;27;89031;-66
2022/09/09 03:16:43;;;;;;;6.20;5.60;;;22.70;99.90;;;;;;6274090;27;89045;-66
2022/09/09 03:19:45;;;;;;;5.95;5.35;;;22.70;99.90;;;;;;6264844;27;90112;-66
2022/09/09 03:22:47;;;;;;;5.68;5.18;;;22.70;99.90;;;;;;6260042;27;89106;-65
2022/09/09 03:25:49;;;;;;;5.68;5.10;;;22.70;99.90;;;;;;6270059;27;89255;-66
2022/09/09 03:28:52;;;;;;;5.55;5.05;;;22.70;99.90;;;;;;6272831;27;89419;-66
2022/09/09 03:31:55;;;;;;;5.82;5.22;;;22.60;99.90;;;;;;6269592;27;89424;-66
2022/09/09 03:34:57;;;;;;;5.45;4.95;;;22.70;99.90;;;;;;6266008;27;89077;-66
2022/09/09 03:38:00;;;;;;;5.68;5.18;;;22.70;99.90;;;;;;6254438;27;89046;-66
2022/09/09 03:41:03;;;;;;;5.53;5.03;;;22.70;99.90;;;;;;6267192;27;88294;-67
2022/09/09 03:44:05;;;;;;;5.63;5.05;;;22.70;99.90;;;;;;6265286;27;89119;-66
2022/09/09 03:47:08;;;;;;;5.80;5.28;;;22.70;99.90;;;;;;6267373;27;89072;-66
2022/09/09 03:50:11;;;;;;;5.40;4.90;;;22.70;99.90;;;;;;6253258;27;90043;-66
2022/09/09 03:53:13;;;;;;;5.75;5.18;;;22.70;99.90;;;;;;6258652;27;89065;-66
2022/09/09 03:56:15;;;;;;;5.60;5.10;;;22.60;99.90;;;;;;6260567;27;89066;-66
2022/09/09 03:59:17;;;;;;;5.15;4.65;;;22.70;99.90;;;;;;6266402;27;88284;-66
2022/09/09 04:02:21;;;;;;;5.40;4.90;;;22.70;99.90;;;;;;6260669;27;89390;-66
2022/09/09 04:05:23;;;;;;;4.82;4.43;;;22.70;99.90;;;;;;6281159;27;88178;-66
2022/09/09 04:08:26;;;;;;;5.50;4.90;;;22.70;99.90;;;;;;6273925;27;89259;-66
2022/09/09 04:11:28;;;;;;;5.70;5.10;;;22.70;99.90;;;;;;6265068;27;88132;-66
2022/09/09 04:14:30;;;;;;;5.60;5.10;;;22.70;99.90;;;;;;6273822;27;91312;-66
2022/09/09 04:17:33;;;;;;;5.75;5.15;;;22.70;99.90;;;;;;6265983;27;89023;-66
2022/09/09 04:20:35;;;;;;;5.78;5.10;;;22.60;99.90;;;;;;6274448;27;90113;-66
2022/09/09 04:23:37;;;;;;;5.25;4.75;;;22.60;99.90;;;;;;6277411;27;89086;-66
2022/09/09 04:26:39;;;;;;;5.20;4.70;;;22.60;99.90;;;;;;6270835;27;89067;-66
2022/09/09 04:29:41;;;;;;;4.70;4.30;;;22.60;99.90;;;;;;6274829;27;87948;-66
2022/09/09 04:32:44;;;;;;;4.60;4.20;;;22.60;99.90;;;;;;6272310;27;89552;-66
2022/09/09 04:35:48;;;;;;;4.47;4.03;;;22.70;99.90;;;;;;6275667;27;89043;-66
2022/09/09 04:38:50;;;;;;;4.97;4.47;;;22.60;99.90;;;;;;6276588;27;88852;-66
2022/09/09 04:41:52;;;;;;;5.07;4.57;;;22.60;99.90;;;;;;6281535;27;88361;-66
2022/09/09 04:44:55;;;;;;;5.28;4.78;;;22.60;99.90;;;;;;6267019;27;89520;-66
2022/09/09 04:47:59;;;;;;;4.60;4.20;;;22.60;99.90;;;;;;6279739;27;88718;-66
2022/09/09 04:51:03;;;;;;;4.65;4.25;;;22.70;99.90;;;;;;6261658;27;90593;-66
2022/09/09 04:54:05;;;;;;;4.60;4.20;;;22.60;99.90;;;;;;6249875;27;88959;-66
2022/09/09 04:57:07;;;;;;;4.72;4.32;;;22.70;99.90;;;;;;6264608;27;89117;-64
2022/09/09 05:00:11;;;;;;;5.53;4.32;;;22.70;99.90;;;;;;6265647;27;89162;-65
2022/09/09 05:03:14;;;;;;;4.93;4.15;;;22.70;99.90;;;;;;6276460;27;89077;-65
2022/09/09 05:06:18;;;;;;;4.32;3.70;;;22.70;99.90;;;;;;6266683;27;89218;-65
2022/09/09 05:09:20;;;;;;;3.83;3.50;;;22.60;99.90;;;;;;6271151;27;92147;-65
2022/09/09 05:12:23;;;;;;;4.28;3.67;;;22.70;99.90;;;;;;6262954;27;88269;-66
2022/09/09 05:15:25;;;;;;;5.07;3.47;;;22.70;99.90;;;;;;6263455;27;89112;-66
2022/09/09 05:18:29;;;;;;;3.30;2.80;;;22.70;99.90;;;;;;6267716;27;87775;-66
2022/09/09 05:21:31;;;;;;;3.28;2.72;;;22.70;99.90;;;;;;6260957;27;90015;-66
2022/09/09 05:24:33;;;;;;;3.30;3.00;;;22.70;99.90;;;;;;6265502;27;87662;-66
2022/09/09 05:27:35;;;;;;;3.53;2.80;;;22.70;99.90;;;;;;6258669;27;88096;-66
2022/09/09 05:30:37;;;;;;;3.03;2.53;;;22.60;99.90;;;;;;6281964;27;88960;-66
2022/09/09 05:33:42;;;;;;;2.60;2.35;;;22.70;99.90;;;;;;6267151;27;89021;-66
2022/09/09 05:36:44;;;;;;;3.00;2.70;;;22.70;99.90;;;;;;6257549;27;89188;-66
2022/09/09 05:39:46;;;;;;;3.20;2.90;;;22.60;99.90;;;;;;6274350;27;89060;-66
2022/09/09 05:42:48;;;;;;;3.28;2.97;;;22.70;99.90;;;;;;6273064;27;88517;-66
2022/09/09 05:46:02;;;;;;;2.78;2.50;;;22.70;99.90;;;;;;6267146;27;89150;-67
2022/09/09 05:49:06;;;;;;;3.33;2.42;;;22.70;99.90;;;;;;6267307;27;87869;-66
2022/09/09 05:52:09;;;;;;;3.55;2.63;;;22.70;99.90;;;;;;6270454;27;90007;-67
2022/09/09 05:55:10;;;;;;;5.05;2.47;;;22.70;99.90;;;;;;6270164;27;89267;-67
2022/09/09 05:58:12;;;;;;;3.03;2.38;;;22.70;99.90;;;;;;6262311;27;89034;-67
2022/09/09 06:01:16;;;;;;;2.50;2.30;;;22.70;99.90;;;;;;6279935;27;89342;-67
2022/09/09 06:04:24;;;;;;;2.38;2.17;;;22.70;99.90;;;;;;6266300;27;89010;-67
2022/09/09 06:07:26;;;;;;;2.90;2.50;;;22.70;99.90;;;;;;6265536;27;89039;-67
2022/09/09 06:10:28;;;;;;;2.97;2.42;;;22.70;99.90;;;;;;6267943;27;89035;-67
2022/09/09 06:13:31;;;;;;;3.65;2.92;;;22.70;99.90;;;;;;6274473;27;87237;-66
2022/09/09 06:16:33;;;;;;;2.70;2.40;;;22.70;99.90;;;;;;6268634;27;89049;-66
2022/09/09 06:19:37;;;;;;;3.20;2.40;;;22.70;99.90;;;;;;6278870;27;89083;-66
2022/09/09 06:22:40;;;;;;;2.70;2.25;;;22.70;99.90;;;;;;6278179;27;90123;-66
2022/09/09 06:25:42;;;;;;;2.72;2.25;;;22.70;99.90;;;;;;6270725;27;87636;-66
2022/09/09 06:28:45;;;;;;;2.35;2.15;;;22.70;99.90;;;;;;6262106;27;89321;-66
2022/09/09 06:31:47;;;;;;;3.75;2.25;;;22.70;99.90;;;;;;6272755;27;88651;-66
2022/09/09 06:34:50;;;;;;;2.85;2.50;;;22.70;99.90;;;;;;6270881;27;89088;-66
2022/09/09 06:37:52;;;;;;;3.85;2.20;;;22.70;99.90;;;;;;6263345;27;89204;-66
2022/09/09 06:40:55;;;;;;;2.50;2.30;;;22.70;99.90;;;;;;6260991;27;90401;-67
2022/09/09 06:43:57;;;;;;;4.15;2.50;;;22.70;99.90;;;;;;6261037;27;88308;-66
2022/09/09 06:46:59;;;;;;;3.58;2.53;;;22.70;99.90;;;;;;6257665;27;89171;-66
2022/09/09 06:50:02;;;;;;;3.33;2.30;;;22.70;99.90;;;;;;6272183;27;89072;-67
2022/09/09 06:53:04;;;;;;;3.42;2.30;;;22.70;99.90;;;;;;6265609;27;90297;-66
2022/09/09 06:56:20;;;;;;;2.97;2.30;;;22.70;99.90;;;;;;6278474;27;89084;-66
2022/09/09 06:59:22;;;;;;;4.22;2.45;;;22.70;99.90;;;;;;6257673;27;88826;-67
2022/09/09 07:02:24;;;;;;;3.83;2.65;;;22.70;99.90;;;;;;6280772;27;89159;-66
2022/09/09 07:05:27;;;;;;;2.65;2.42;;;22.70;99.90;;;;;;6266545;27;87935;-67
2022/09/09 07:08:31;;;;;;;2.60;2.28;;;22.70;99.90;;;;;;6264948;27;89408;-66
2022/09/09 07:11:35;;;;;;;2.30;2.10;;;22.70;99.90;;;;;;6277525;27;89074;-67
2022/09/09 07:14:37;;;;;;;3.58;2.33;;;22.70;99.90;;;;;;6278301;27;88486;-67
2022/09/09 07:17:39;;;;;;;2.83;2.15;;;22.70;99.90;;;;;;6258691;27;89088;-67
2022/09/09 07:20:43;;;;;;;2.60;2.20;;;22.70;99.90;;;;;;6256429;27;89040;-67
2022/09/09 07:23:45;;;;;;;2.65;2.10;;;22.70;99.90;;;;;;6265805;27;90083;-66
2022/09/09 07:26:47;;;;;;;2.42;2.22;;;22.70;99.90;;;;;;6273918;27;89091;-67
2022/09/09 07:29:49;;;;;;;2.40;1.95;;;22.70;99.90;;;;;;6273063;27;88998;-66
2022/09/09 07:32:52;;;;;;;2.22;2.03;;;22.70;99.90;;;;;;6273623;27;89156;-67
2022/09/09 07:36:02;;;;;;;4.13;2.45;;;22.70;99.90;;;;;;6255868;27;89066;-66
2022/09/09 07:39:06;;;;;;;2.20;2.00;;;22.70;99.90;;;;;;6281578;27;89112;-67
2022/09/09 07:42:09;;;;;;;6.93;2.28;;;22.70;99.90;;;;;;6283605;27;88077;-67
2022/09/09 07:45:11;;;;;;;2.40;1.90;;;22.70;99.90;;;;;;6284008;27;88445;-67
2022/09/09 07:48:14;;;;;;;2.28;1.98;;;22.70;99.90;;;;;;6267340;27;89083;-66
2022/09/09 07:51:19;;;;;;;4.35;2.60;;;22.70;99.90;;;;;;6280278;27;88406;-67
2022/09/09 07:54:23;;;;;;;2.15;1.80;;;22.70;99.90;;;;;;6270527;27;89235;-67
2022/09/09 07:57:25;;;;;;;2.45;1.88;;;22.70;99.90;;;;;;6281192;27;90770;-66
2022/09/09 08:00:28;;;;;;;1.65;1.55;;;22.70;99.90;;;;;;6272995;27;87954;-67
2022/09/09 08:03:30;;;;;;;2.08;1.75;;;22.70;99.90;;;;;;6278341;27;89774;-66
2022/09/09 08:06:35;;;;;;;2.28;1.80;;;22.70;99.90;;;;;;6269804;27;89178;-67
2022/09/09 08:09:37;;;;;;;4.03;1.77;;;22.70;99.90;;;;;;6273217;27;89127;-66
2022/09/09 08:12:39;;;;;;;2.72;1.70;;;22.70;99.90;;;;;;6281232;27;89129;-67
2022/09/09 08:15:42;;;;;;;3.28;2.17;;;22.70;99.90;;;;;;6281436;27;88332;-66
2022/09/09 08:18:44;;;;;;;2.35;1.95;;;22.70;99.90;;;;;;6268241;27;88614;-67
2022/09/09 08:21:48;;;;;;;2.83;1.98;;;22.70;99.90;;;;;;6282766;27;89295;-67
2022/09/09 08:24:50;;;;;;;2.17;1.98;;;22.60;99.90;;;;;;6282788;27;89965;-67
2022/09/09 08:27:54;;;;;;;3.00;2.03;;;22.70;99.90;;;;;;6266485;27;88297;-67
2022/09/09 08:30:56;;;;;;;2.55;1.85;;;22.60;99.90;;;;;;6278068;27;89228;-66
2022/09/09 08:34:00;;;;;;;14.65;3.40;;;22.70;99.90;;;;;;6270656;27;88017;-67
2022/09/09 08:37:03;;;;;;;5.45;2.20;;;22.60;99.90;;;;;;6269109;27;89018;-66
2022/09/09 08:40:10;;;;;;;8.55;3.08;;;22.70;99.90;;;;;;6273818;27;89478;-67
2022/09/09 08:43:12;;;;;;;3.88;2.30;;;22.60;99.90;;;;;;6264047;27;89123;-67
2022/09/09 08:46:25;;;;;;;4.97;2.58;;;22.60;99.90;;;;;;6265760;27;88419;-66
2022/09/09 08:49:42;;;;;;;4.75;2.30;;;22.60;99.90;;;;;;6269862;27;89221;-67
2022/09/09 08:52:52;;;;;;;6.38;2.55;;;22.70;99.90;;;;;;6267531;27;89370;-67
2022/09/09 08:55:59;;;;;;;3.03;2.05;;;22.70;99.90;;;;;;6267199;27;91663;-67
2022/09/09 08:59:02;;;;;;;2.10;1.90;;;22.70;99.90;;;;;;6267288;27;89089;-67
2022/09/09 09:02:15;;;;;;;3.75;1.98;;;22.70;99.90;;;;;;6260834;27;89049;-66
2022/09/09 09:05:29;;;;;;;3.08;1.90;;;22.70;99.90;;;;;;6264392;27;89153;-66
2022/09/09 09:08:41;;;;;;;2.95;2.10;;;22.70;99.90;;;;;;6261754;27;88773;-67
2022/09/09 09:11:48;;;;;;;3.55;2.40;;;22.70;99.90;;;;;;6260439;27;87658;-67
2022/09/09 09:14:50;;;;;;;3.47;2.00;;;22.70;99.90;;;;;;6258515;27;88980;-67
2022/09/09 09:17:53;;;;;;;4.20;2.50;;;22.60;99.90;;;;;;6270799;27;88291;-67
2022/09/09 09:21:04;;;;;;;3.13;2.13;;;22.60;99.90;;;;;;6267708;27;89139;-67
2022/09/09 09:24:17;;;;;;;3.05;2.08;;;22.70;99.90;;;;;;6273350;27;89043;-67
2022/09/09 09:27:31;;;;;;;2.63;2.13;;;22.60;99.90;;;;;;6259829;27;90027;-67
2022/09/09 09:30:39;;;;;;;3.38;2.20;;;22.60;99.90;;;;;;6275128;27;88711;-67
2022/09/09 09:33:48;;;;;;;3.90;2.08;;;22.60;99.90;;;;;;6261455;27;89146;-68
2022/09/09 09:36:55;;;;;;;2.45;2.22;;;22.70;99.90;;;;;;6271334;27;87940;-67
2022/09/09 09:40:10;;;;;;;3.10;2.50;;;22.70;99.90;;;;;;6265163;27;87924;-67
2022/09/09 09:43:22;;;;;;;2.75;2.28;;;22.70;99.90;;;;;;6264740;27;89470;-67
2022/09/09 09:46:27;;;;;;;3.08;2.50;;;22.70;99.90;;;;;;6258204;27;88908;-67
2022/09/09 09:49:29;;;;;;;3.65;2.78;;;22.70;99.90;;;;;;6278600;27;88272;-67
2022/09/09 09:52:34;;;;;;;2.53;2.33;;;22.60;99.90;;;;;;6262734;27;89063;-67
2022/09/09 09:55:49;;;;;;;3.15;2.10;;;22.70;99.90;;;;;;6271588;27;89183;-67
2022/09/09 09:58:53;;;;;;;3.63;2.33;;;22.70;99.90;;;;;;6264062;27;89059;-67
2022/09/09 10:01:55;;;;;;;2.97;2.28;;;22.70;99.90;;;;;;6281017;27;89283;-67
2022/09/09 10:05:05;;;;;;;2.40;2.20;;;22.70;99.90;;;;;;6269209;27;88951;-67
2022/09/09 10:08:12;;;;;;;3.13;2.00;;;22.60;99.90;;;;;;6260299;27;89055;-67
2022/09/09 10:11:30;;;;;;;3.63;2.10;;;22.70;99.90;;;;;;6265181;27;89059;-67
2022/09/09 10:14:42;;;;;;;2.97;2.28;;;22.60;99.90;;;;;;6264098;27;89049;-67
2022/09/09 10:18:02;;;;;;;2.95;2.15;;;22.60;99.90;;;;;;6263860;27;89046;-67
2022/09/09 10:21:13;;;;;;;3.20;2.33;;;22.60;99.90;;;;;;6261424;27;88481;-67
2022/09/09 10:24:31;;;;;;;3.22;2.40;;;22.60;99.90;;;;;;6265312;27;89163;-67
2022/09/09 10:27:45;;;;;;;3.00;2.15;;;22.70;99.90;;;;;;6264774;27;89016;-67
2022/09/09 10:30:58;;;;;;;2.83;2.10;;;22.60;99.90;;;;;;6267782;27;90353;-67
2022/09/09 10:34:14;;;;;;;2.42;2.10;;;22.60;99.90;;;;;;6273932;27;89041;-67
2022/09/09 10:37:28;;;;;;;2.78;2.38;;;22.60;99.90;;;;;;6265386;27;89329;-67
2022/09/09 10:40:33;;;;;;;2.80;2.30;;;22.60;99.90;;;;;;6265314;27;88984;-67
2022/09/09 10:44:10;;;;;;;2.22;1.92;;;22.70;99.90;;;;;;6268594;27;89188;-67
2022/09/09 10:47:40;;;;;;;2.30;1.90;;;22.60;99.90;;;;;;6247291;27;89439;-67
2022/09/09 10:50:51;;;;;;;3.95;2.50;;;22.60;99.90;;;;;;6231104;27;89094;-67
2022/09/09 10:54:08;;;;;;;2.65;2.35;;;22.60;99.90;;;;;;6279703;27;88124;-67
2022/09/09 10:57:14;;;;;;;2.50;2.10;;;22.60;99.90;;;;;;6267558;27;89273;-67
2022/09/09 11:00:21;;;;;;;2.22;1.95;;;22.60;99.90;;;;;;6272975;27;89238;-67
2022/09/09 11:03:29;;;;;;;2.83;2.05;;;22.60;99.90;;;;;;6259107;27;91765;-67
2022/09/09 11:06:37;;;;;;;2.40;2.20;;;22.60;99.90;;;;;;6268474;27;89123;-67
2022/09/09 11:09:44;;;;;;;3.58;2.35;;;22.60;99.90;;;;;;6258333;27;88975;-67
2022/09/09 11:12:49;;;;;;;3.17;2.40;;;22.60;99.90;;;;;;6276699;27;89032;-67
2022/09/09 11:16:00;;;;;;;2.58;1.95;;;22.60;99.90;;;;;;6266548;27;89033;-67
2022/09/09 11:19:10;;;;;;;2.70;2.50;;;22.60;99.90;;;;;;6282514;27;87848;-67
2022/09/09 11:22:23;;;;;;;3.78;2.67;;;22.60;99.90;;;;;;6268517;27;89527;-67
2022/09/09 11:25:31;;;;;;;2.80;2.20;;;22.60;99.90;;;;;;6261778;27;88418;-67
2022/09/09 11:28:48;;;;;;;3.45;2.10;;;22.60;99.90;;;;;;6269242;27;89284;-67
2022/09/09 11:32:04;;;;;;;3.95;2.45;;;22.60;99.90;;;;;;6263586;27;88863;-67
2022/09/09 11:35:21;;;;;;;6.53;2.63;;;22.60;99.90;;;;;;6266976;27;90063;-67
2022/09/09 11:38:27;;;;;;;5.57;2.78;;;22.60;99.90;;;;;;6277998;27;89067;-67
2022/09/09 11:41:37;;;;;;;4.35;2.78;;;22.60;99.90;;;;;;6277573;27;89040;-67
2022/09/09 11:44:39;;;;;;;4.00;2.88;;;22.60;99.90;;;;;;6275529;27;89085;-67
2022/09/09 11:47:53;;;;;;;3.97;2.33;;;22.60;99.90;;;;;;6271192;27;89068;-67
2022/09/09 11:51:00;;;;;;;3.72;2.60;;;22.60;99.90;;;;;;6276922;27;89312;-67
2022/09/09 11:54:04;;;;;;;3.50;2.38;;;22.60;99.90;;;;;;6278827;27;89097;-67
2022/09/09 11:57:28;;;;;;;3.53;2.50;;;22.60;99.90;;;;;;6275259;27;87211;-67
2022/09/09 12:00:36;;;;;;;3.38;2.70;;;22.60;99.90;;;;;;6269194;27;89033;-67
2022/09/09 12:03:45;;;;;;;3.58;2.40;;;22.60;99.90;;;;;;6273569;27;90756;-67
2022/09/09 12:06:52;;;;;;;3.75;2.50;;;22.60;99.90;;;;;;6273059;27;90122;-67
2022/09/09 12:09:59;;;;;;;3.55;2.38;;;22.60;99.90;;;;;;6275331;27;89033;-67
2022/09/09 12:13:16;;;;;;;2.65;2.40;;;22.60;99.90;;;;;;6268733;27;89113;-67
2022/09/09 12:16:32;;;;;;;2.90;2.30;;;22.60;99.90;;;;;;6268799;27;89078;-67
2022/09/09 12:19:36;;;;;;;3.67;2.67;;;22.60;99.90;;;;;;6272717;27;88855;-67
2022/09/09 12:22:56;;;;;;;3.35;2.90;;;22.60;99.90;;;;;;6265757;27;89016;-67
2022/09/09 12:26:27;;;;;;;4.03;2.60;;;22.60;99.90;;;;;;6268448;27;89141;-67
2022/09/09 12:29:38;;;;;;;3.63;2.70;;;22.60;99.90;;;;;;6260858;27;87349;-67
2022/09/09 12:32:40;;;;;;;3.55;2.40;;;22.60;99.90;;;;;;6263733;27;87989;-67
2022/09/09 12:35:47;;;;;;;5.10;2.47;;;22.60;99.90;;;;;;6270847;27;89065;-67
2022/09/09 12:38:50;;;;;;;2.78;2.35;;;22.60;99.90;;;;;;6268225;27;89252;-67
2022/09/09 12:41:57;;;;;;;3.30;2.70;;;22.60;99.90;;;;;;6277307;27;89154;-67
2022/09/09 12:45:00;;;;;;;5.03;2.60;;;22.60;99.90;;;;;;6270050;27;89351;-67
2022/09/09 12:48:06;;;;;;;3.30;2.40;;;22.60;99.90;;;;;;6269958;27;89149;-67
2022/09/09 12:51:20;;;;;;;3.40;2.65;;;22.60;99.90;;;;;;6267436;27;89159;-67
2022/09/09 12:54:23;;;;;;;3.47;2.70;;;22.60;99.90;;;;;;6269053;27;87755;-67
2022/09/09 12:57:27;;;;;;;3.13;2.50;;;22.60;99.90;;;;;;6270015;27;89103;-67
2022/09/09 13:00:30;;;;;;;3.08;2.65;;;22.60;99.90;;;;;;6272209;27;88370;-67
2022/09/09 13:03:32;;;;;;;2.75;2.40;;;22.60;99.90;;;;;;6270299;27;89161;-67
2022/09/09 13:06:36;;;;;;;2.67;2.30;;;22.60;99.90;;;;;;6272613;27;89150;-67
2022/09/09 13:09:38;;;;;;;2.80;2.47;;;22.60;99.90;;;;;;6270568;27;90299;-67
2022/09/09 13:12:41;;;;;;;3.90;2.58;;;22.60;99.90;;;;;;6276121;27;89082;-67
2022/09/09 13:15:50;;;;;;;2.63;2.40;;;22.60;99.90;;;;;;6272844;27;88966;-67
2022/09/09 13:18:55;;;;;;;3.15;2.60;;;22.60;99.90;;;;;;6279639;27;89019;-67
2022/09/09 13:21:59;;;;;;;3.15;2.55;;;22.60;99.90;;;;;;6269406;27;89150;-67
2022/09/09 13:25:05;;;;;;;4.03;2.75;;;22.60;99.90;;;;;;6271842;27;88004;-67
2022/09/09 13:28:21;;;;;;;3.80;2.58;;;22.60;99.90;;;;;;6267899;27;89045;-67
2022/09/09 13:31:27;;;;;;;2.97;2.60;;;22.60;99.90;;;;;;6278391;27;88251;-67
2022/09/09 13:34:31;;;;;;;2.85;2.40;;;22.60;99.90;;;;;;6262470;27;89123;-67
2022/09/09 13:37:36;;;;;;;2.58;2.38;;;22.60;99.90;;;;;;6277061;27;89176;-66
2022/09/09 13:40:39;;;;;;;3.00;2.60;;;22.60;99.90;;;;;;6266633;27;90249;-67
2022/09/09 13:43:47;;;;;;;3.75;2.60;;;22.60;99.90;;;;;;6263638;27;89231;-67
2022/09/09 13:46:49;;;;;;;5.47;2.90;;;22.60;99.90;;;;;;6260808;27;89347;-66
2022/09/09 13:49:51;;;;;;;5.05;4.55;;;22.60;99.90;;;;;;6268347;27;89081;-67
2022/09/09 13:52:58;;;;;;;7.25;4.05;;;22.70;99.90;;;;;;6259599;27;89068;-64
2022/09/09 13:56:01;;;;;;;4.97;4.47;;;22.70;99.90;;;;;;6268802;27;89069;-65
2022/09/09 13:59:04;;;;;;;3.90;3.47;;;22.70;99.90;;;;;;6264595;27;89006;-64
2022/09/09 14:02:06;;;;;;;3.30;3.00;;;22.80;99.90;;;;;;6267658;27;88402;-64
2022/09/09 14:05:08;;;;;;;3.60;2.55;;;22.80;99.90;;;;;;6268690;27;87930;-65
2022/09/09 14:08:26;;;;;;;3.10;2.80;;;22.90;99.90;;;;;;6259854;27;89062;-63
2022/09/09 14:11:28;;;;;;;3.80;2.70;;;22.90;99.90;;;;;;6263573;27;89925;-62
2022/09/09 14:14:30;;;;;;;3.25;2.50;;;22.90;99.90;;;;;;6277967;27;89029;-63
2022/09/09 14:17:32;;;;;;;2.70;2.50;;;22.90;99.90;;;;;;6265414;27;89264;-63
2022/09/09 14:20:34;;;;;;;2.97;2.70;;;22.90;99.90;;;;;;6259373;27;89110;-63
2022/09/09 14:23:38;;;;;;;3.47;2.75;;;23.00;99.90;;;;;;6256161;27;88299;-62
2022/09/09 14:26:40;;;;;;;4.95;2.60;;;23.00;99.90;;;;;;6259678;27;88928;-63
2022/09/09 14:29:43;;;;;;;3.45;2.60;;;22.90;99.90;;;;;;6274896;27;89126;-63
2022/09/09 14:32:45;;;;;;;3.10;2.80;;;22.90;99.90;;;;;;6263508;27;87508;-63
2022/09/09 14:35:47;;;;;;;3.42;2.42;;;22.90;99.90;;;;;;6262455;27;89089;-63
2022/09/09 14:38:50;;;;;;;3.65;2.50;;;23.00;99.90;;;;;;6265792;27;89067;-63
2022/09/09 14:41:52;;;;;;;2.50;2.30;;;23.00;99.90;;;;;;6258029;27;91621;-63
2022/09/09 14:44:54;;;;;;;2.85;2.20;;;22.90;99.90;;;;;;6262398;27;89367;-64
2022/09/09 14:47:57;;;;;;;4.05;2.50;;;22.90;99.90;;;;;;6267063;27;89044;-64
2022/09/09 14:51:06;;;;;;;3.63;2.42;;;22.90;99.90;;;;;;6257522;27;89028;-64
2022/09/09 14:54:10;;;;;;;4.00;2.72;;;22.90;99.90;;;;;;6258097;27;89039;-64
2022/09/09 14:57:12;;;;;;;2.90;2.60;;;22.90;99.90;;;;;;6266184;27;89087;-64
2022/09/09 15:00:15;;;;;;;4.07;2.38;;;22.90;99.90;;;;;;6269531;27;88275;-64
2022/09/09 15:03:17;;;;;;;2.70;2.38;;;22.80;99.90;;;;;;6273308;27;88326;-63
2022/09/09 15:06:20;;;;;;;3.28;2.40;;;22.90;99.90;;;;;;6259466;27;88960;-64
2022/09/09 15:09:24;;;;;;;2.63;2.42;;;22.90;99.90;;;;;;6274102;27;89090;-63
2022/09/09 15:12:27;;;;;;;3.67;2.30;;;22.90;99.90;;;;;;6277191;27;90440;-64
2022/09/09 15:15:29;;;;;;;2.80;2.42;;;22.80;99.90;;;;;;6266468;27;89098;-64
2022/09/09 15:18:32;;;;;;;6.35;2.10;;;22.90;99.90;;;;;;6268196;27;89370;-63
2022/09/09 15:21:35;;;;;;;5.68;2.40;;;22.90;99.90;;;;;;6266389;27;89057;-63
2022/09/09 15:24:38;;;;;;;4.03;2.55;;;22.90;99.90;;;;;;6258600;27;90034;-63
2022/09/09 15:27:40;;;;;;;3.90;2.50;;;22.90;99.90;;;;;;6264724;27;87963;-63
2022/09/09 15:30:45;;;;;;;6.15;2.30;;;22.90;99.90;;;;;;6263927;27;88996;-63
2022/09/09 15:33:50;;;;;;;2.90;2.20;;;22.90;99.90;;;;;;6262506;27;88874;-64
2022/09/09 15:36:55;;;;;;;4.55;2.13;;;22.90;99.90;;;;;;6273454;27;89530;-63
2022/09/09 15:39:59;;;;;;;3.42;2.58;;;22.90;99.90;;;;;;6264302;27;88945;-63
2022/09/09 15:43:01;;;;;;;4.97;2.80;;;22.80;99.90;;;;;;6257876;27;89689;-63
2022/09/09 15:46:24;;;;;;;3.78;2.40;;;22.90;99.90;;;;;;6263392;27;89417;-63
2022/09/09 15:49:26;;;;;;;3.22;2.33;;;22.90;99.90;;;;;;6270238;27;88800;-63
2022/09/09 15:52:28;;;;;;;3.42;2.28;;;22.90;99.90;;;;;;6267467;27;89054;-62
2022/09/09 15:55:32;;;;;;;4.90;2.30;;;22.90;99.90;;;;;;6267575;27;89109;-62
2022/09/09 15:58:35;;;;;;;4.07;2.40;;;22.90;99.90;;;;;;6281570;27;87908;-62
2022/09/09 16:01:39;;;;;;;4.78;2.08;;;22.90;99.90;;;;;;6282138;27;89488;-62
2022/09/09 16:04:41;;;;;;;5.82;2.55;;;23.00;99.90;;;;;;6269019;27;88428;-62
2022/09/09 16:07:44;;;;;;;5.30;2.45;;;23.00;99.90;;;;;;6266479;27;89205;-65
2022/09/09 16:10:48;;;;;;;4.80;2.50;;;23.00;99.90;;;;;;6268177;27;89061;-66